createdAt,value
2022-10-11T12:11:16.620Z,17.54
2022-10-11T12:12:16.575Z,17.97
2022-10-11T12:13:16.559Z,18.25
2022-10-11T12:14:16.540Z,18.36
2022-10-11T12:15:16.525Z,18.29
2022-10-11T12:16:16.518Z,18.17
2022-10-11T12:17:16.498Z,18.10
2022-10-11T12:18:16.484Z,17.26
2022-10-11T12:19:16.466Z,17.64
2022-10-11T12:20:16.449Z,17.12
2022-10-11T12:21:16.442Z,17.12
2022-10-11T12:23:34.850Z,16.68
2022-10-11T12:24:34.822Z,16.97
2022-10-11T12:25:34.809Z,16.68
2022-10-11T12:26:34.801Z,16.83
2022-10-11T12:27:34.780Z,17.12
2022-10-11T12:28:34.817Z,17.11
2022-10-11T12:29:34.742Z,17.00
2022-10-11T12:30:34.725Z,17.12
2022-10-11T12:31:34.745Z,17.38
2022-10-11T12:36:41.741Z,16.05
2022-10-11T12:37:41.714Z,16.42
2022-10-11T12:38:41.700Z,17.37
2022-10-11T12:39:41.678Z,17.99
2022-10-11T12:40:41.665Z,18.39
2022-10-11T12:41:41.635Z,18.85
2022-10-11T12:42:41.642Z,19.21
2022-10-11T12:43:41.620Z,19.54
2022-10-11T12:44:41.598Z,19.04
2022-10-11T12:45:41.573Z,19.18
2022-10-11T12:46:41.555Z,19.80
2022-10-11T12:47:41.561Z,19.91
2022-10-11T12:48:41.636Z,20.18
2022-10-11T12:49:41.513Z,20.62
2022-10-11T12:50:41.491Z,20.42
2022-10-11T12:51:41.483Z,20.59
2022-10-11T12:52:41.475Z,20.42
2022-10-11T12:53:41.446Z,20.18
2022-10-11T12:54:41.437Z,19.78
2022-10-11T12:55:41.425Z,19.47
2022-10-11T12:56:41.398Z,19.77
2022-10-11T12:57:45.899Z,19.99
2022-10-11T12:58:41.394Z,20.38
2022-10-11T12:59:41.363Z,20.58
2022-10-11T13:00:41.338Z,20.47
2022-10-11T13:01:41.359Z,20.73
2022-10-11T13:02:41.326Z,20.92
2022-10-11T13:03:41.304Z,21.06
2022-10-11T13:04:41.288Z,21.35
2022-10-11T13:05:44.779Z,21.47
2022-10-11T13:06:41.260Z,21.38
2022-10-11T13:07:41.262Z,21.50
2022-10-11T13:08:41.233Z,21.59
2022-10-11T13:09:45.279Z,21.27
2022-10-11T13:10:41.205Z,21.07
2022-10-11T13:11:41.182Z,20.69
2022-10-11T13:12:41.175Z,20.59
2022-10-11T13:13:41.175Z,20.55
2022-10-11T13:14:48.915Z,20.54
2022-10-11T13:15:41.128Z,20.03
2022-10-11T13:16:41.109Z,20.74
2022-10-11T13:17:41.094Z,21.01
2022-10-11T13:18:41.104Z,20.39
2022-10-11T13:20:42.525Z,19.46
2022-10-11T13:21:41.043Z,19.83
2022-10-11T13:22:41.018Z,19.96
2022-10-11T13:23:41.032Z,19.99
2022-10-11T13:24:40.995Z,19.46
2022-10-11T13:25:40.986Z,18.60
2022-10-11T13:26:40.958Z,18.55
2022-10-11T13:27:40.946Z,17.63
2022-10-11T13:28:40.968Z,17.64
2022-10-11T13:29:40.942Z,17.86
2022-10-11T13:30:40.899Z,17.87
2022-10-11T13:31:40.883Z,18.08
2022-10-11T13:32:40.880Z,17.96
2022-10-11T13:33:40.867Z,17.46
2022-10-11T13:34:40.874Z,17.00
2022-10-11T13:35:40.825Z,17.25
2022-10-11T13:36:40.850Z,17.49
2022-10-11T13:37:40.808Z,17.63
2022-10-11T13:38:40.786Z,17.79
2022-10-11T13:39:40.786Z,17.90
2022-10-11T13:40:40.762Z,17.95
2022-10-11T13:41:40.738Z,18.05
2022-10-11T13:42:40.737Z,17.77
2022-10-11T13:43:40.717Z,17.87
2022-10-11T13:44:40.715Z,17.86
2022-10-11T13:45:40.724Z,18.17
2022-10-11T13:46:41.892Z,18.07
2022-10-11T13:47:40.650Z,18.42
2022-10-11T13:48:40.638Z,18.78
2022-10-11T13:49:40.614Z,19.33
2022-10-11T13:50:40.663Z,19.83
2022-10-11T13:51:40.614Z,19.74
2022-10-11T13:52:40.569Z,20.32
2022-10-11T13:53:40.570Z,20.29
2022-10-11T13:54:40.557Z,20.58
2022-10-11T13:55:40.547Z,20.42
2022-10-11T13:56:40.517Z,20.01
2022-10-11T13:57:40.521Z,19.47
2022-10-11T13:58:40.567Z,19.81
2022-10-11T13:59:40.496Z,19.68
2022-10-11T14:00:40.478Z,20.18
2022-10-11T14:01:40.573Z,20.39
2022-10-11T14:02:40.437Z,19.44
2022-10-11T14:03:40.419Z,18.54
2022-10-11T14:04:40.406Z,18.37
2022-10-11T14:05:40.418Z,17.59
2022-10-11T14:06:40.414Z,17.64
2022-10-11T14:08:05.452Z,17.66
2022-10-11T14:12:54.112Z,17.19
2022-10-11T14:13:54.110Z,17.51
2022-10-11T14:14:54.059Z,17.97
2022-10-11T14:15:54.065Z,18.26
2022-10-11T14:16:54.049Z,18.42
2022-10-11T14:17:54.025Z,18.50
2022-10-11T14:18:54.013Z,18.48
2022-10-11T14:19:53.994Z,18.55
2022-10-11T14:20:53.982Z,18.39
2022-10-11T14:21:53.972Z,18.39
2022-10-11T14:22:53.989Z,18.50
2022-10-11T14:23:53.933Z,18.25
2022-10-11T14:24:53.929Z,17.74
2022-10-11T14:25:53.906Z,17.72
2022-10-11T14:26:53.966Z,17.82
2022-10-11T14:27:53.899Z,17.66
2022-10-11T14:28:53.902Z,17.46
2022-10-11T14:30:23.584Z,17.31
2022-10-11T14:30:53.828Z,17.11
2022-10-11T14:31:53.827Z,17.12
2022-10-11T14:32:53.802Z,17.00
